Tiempo atmosférico en la estación meteorológica de El Bodón Base Aérea, Salamanca (805 m.)

Fecha
DESCASC
Temp. máxima en grados centígrados (hora)
DESCASC
Temp. mínima en grados centígrados (hora)
DESCASC
Temp. media en grados centígrados
DESCASC
Racha de viento máxima en m/sg (hora)
DESCASC
Velocidad máxima media en intervalos de 10 minutos(hora)
DESCASC
Precipitaciones diarias en mm
DESCASC
Precipitaciones de 00:00 a 06:00 en mm
DESCASC
Precipitaciones de 06:00 a 12:00 en mm
DESCASC
Precipitaciones de 12:00 a 18:00 en mm
DESCASC
Precipitaciones de 18:00 a 24:00 en mm
DESCASC
22-10-2017 -- (--) -- (--) -- -- (--) -- (--) -- 0 -- -- --
21-10-2017 15.8 (15:50) 7.5 (23:40) 11.7 9.72 (13:50) 5.83 (18:20) 0.6 0 0.6 0 0
20-10-2017 19.8 (14:40) 10.8 (06:10) 15.3 7.5 (15:20) 5.56 (15:20) 0.2 0 0 0 0.2
19-10-2017 14.9 (15:50) 2.9 (00:00) 8.9 6.39 (16:20) 3.61 (16:20) 0 0 0 0 0
18-10-2017 14.2 (16:20) 7.5 (00:00) 10.8 10.83 (11:50) 6.67 (03:00) 5.8 2.4 2.6 0.8 0
17-10-2017 18.5 (00:00) 11 (00:00) 14.8 14.17 (13:50) 9.17 (14:30) 6 0 5.8 0.2 0
16-10-2017 22.2 (13:30) 14.3 (00:00) 18.3 13.33 (11:50) 8.33 (14:00) 0 0 0 0 0
15-10-2017 27.7 (17:10) 17.6 (00:00) 22.7 14.17 (14:50) 7.78 (15:00) 0 0 0 0 0
14-10-2017 27.5 (14:50) 8.2 (00:00) 17.8 10 (16:30) 7.22 (15:40) 0 0 0 0 0
13-10-2017 25.6 (16:10) 8.8 (00:00) 17.2 8.61 (13:30) 5 (14:50) 0 0 0 0 0
12-10-2017 27.3 (15:50) 8.2 (00:00) 17.7 9.72 (16:20) 6.11 (17:50) 0 0 0 0 0
11-10-2017 26.7 (17:30) 6.9 (00:00) 16.8 8.61 (14:30) 4.72 (14:20) 0 0 0 0 0
10-10-2017 27.3 (15:50) 5.6 (00:00) 16.4 7.78 (17:40) 5.28 (18:40) 0 0 0 0 0
09-10-2017 27.3 (16:10) 5.3 (00:00) 16.3 6.67 (16:40) 4.17 (03:10) 0 0 0 0 0
08-10-2017 27.9 (16:30) 4.8 (00:00) 16.3 6.67 (07:50) 4.17 (07:50) 0 0 0 0 0
07-10-2017 26.1 (18:10) 8.5 (00:00) 17.3 6.11 (07:10) 4.17 (07:10) 0 0 0 0 0
06-10-2017 27.6 (15:50) 9 (00:00) 18.3 8.89 (15:20) 6.11 (16:20) 0 0 0 0 0
05-10-2017 30.9 (17:50) 11.6 (00:00) 21.3 6.67 (15:10) 4.17 (09:20) 0 0 0 0 0
04-10-2017 29.4 (16:50) 10.1 (00:00) 19.8 9.17 (16:50) 5.28 (16:40) 0 0 0 0 0
03-10-2017 30.4 (15:40) 12.1 (00:00) 21.3 8.33 (17:00) 4.72 (17:00) 0 0 0 0 0
02-10-2017 28.4 (17:40) 10.3 (00:00) 19.3 7.22 (16:00) 4.44 (15:20) 0 0 0 0 0
01-10-2017 26.4 (17:30) 11 (00:00) 18.7 9.72 (15:50) 5 (15:50) 0 0 0 0 0
30-09-2017 24.2 (16:50) 9.2 (00:00) 16.7 8.89 (17:20) 5.83 (18:10) 0 0 0 0 0
29-09-2017 27.2 (16:00) 9.8 (00:00) 18.5 10.83 (15:30) 5.56 (15:30) 0 0 0 0 0
28-09-2017 26.3 (17:00) 7.5 (00:00) 16.9 8.61 (14:20) 5 (16:00) 0 0 0 0 0
27-09-2017 25.2 (16:40) 6 (00:00) 15.6 10 (11:50) 6.67 (13:10) 0 0 0 0 0
26-09-2017 26 (17:30) 4.8 (00:00) 15.4 5.56 (16:50) 3.33 (07:20) 0 0 0 0 0
25-09-2017 22.4 (17:50) 10.3 (00:00) 16.3 8.89 (16:00) 5.56 (13:40) 0 0 0 0 0
24-09-2017 26.8 (17:20) 8.1 (00:00) 17.4 12.22 (14:30) 8.06 (13:40) 0 0 0 0 0
23-09-2017 25.6 (15:50) 9.1 (00:00) 17.4 9.17 (15:50) 5.83 (11:00) 0 0 0 0 0

Gráficas

Temp. máximas Temp. mínimas Temp. medias Precipitaciones Rachas de viento máximas Velocidades máximas media en intervalos de 10 minutos

Datos horarios

Fecha y hora oficial Temperatura (ºC) Velocidad del viento (km/h) Dirección del viento Racha (km/h) Dirección de racha Precipitación (mm) Presión (hPa) Tendencia (hPa) Humedad (%)
2017-10-22 23:00:00 -- -- -- -- -- -- -- -- --
2017-10-22 22:00:00 -- -- -- -- -- -- -- -- --
2017-10-22 21:00:00 -- -- -- -- -- -- -- -- --
2017-10-22 20:00:00 -- -- -- -- -- -- -- -- --
2017-10-22 19:00:00 -- -- -- -- -- -- -- -- --
2017-10-22 18:00:00 -- -- -- -- -- -- -- -- --
2017-10-22 17:00:00 -- -- -- -- -- -- -- -- --
2017-10-22 16:00:00 -- -- -- -- -- -- -- -- --
2017-10-22 15:00:00 -- -- -- -- -- -- -- -- --
2017-10-22 14:00:00 -- -- -- -- -- -- -- -- --
2017-10-22 13:00:00 -- -- -- -- -- -- -- -- --
2017-10-22 12:00:00 -- -- -- -- -- -- -- -- --
2017-10-22 11:00:00 -- -- -- -- -- -- -- -- --
2017-10-22 10:00:00 -- -- -- -- -- -- -- -- --
2017-10-22 09:00:00 -- -- -- -- -- -- -- -- --
2017-10-22 08:00:00 -- -- -- -- -- -- -- -- --
2017-10-22 07:00:00 -- -- -- -- -- -- -- -- --
2017-10-22 06:00:00 5 13 Norte 16 Norte 0 -- -- 92
2017-10-22 05:00:00 5.3 7 Norte 12 Norte 0 -- -- 91
2017-10-22 04:00:00 5.9 9 Norte 13 Norte 0 -- -- 89
2017-10-22 03:00:00 6.1 9 Norte 12 Norte 0 -- -- 87
2017-10-22 02:00:00 7.2 8 Norte 12 Norte 0 -- -- 83
2017-10-22 01:00:00 7.3 6 Norte 12 Nordeste 0 -- -- 83
2017-10-22 00:00:00 7.7 7 Norte 13 Noroeste 0 -- -- 81
2017-10-21 23:00:00 8.7 6 Nordeste 9 Nordeste 0 -- -- 76
2017-10-21 22:00:00 9.7 4 Nordeste 11 Norte 0 -- -- 71
2017-10-21 21:00:00 11 8 Norte 20 Norte 0 -- -- 66
2017-10-21 20:00:00 12.4 13 Norte 23 Norte 0 -- -- 60
2017-10-21 19:00:00 14.3 17 Noroeste 31 Norte 0 -- -- 54
2017-10-21 18:00:00 15.2 21 Noroeste 29 Noroeste 0 -- -- 51
2017-10-21 17:00:00 15.6 18 Norte 31 Norte 0 -- -- 48
2017-10-21 16:00:00 15.8 13 Norte 30 Norte 0 -- -- 47
2017-10-21 15:00:00 15.3 17 Norte 27 Norte 0 -- -- 50
2017-10-21 14:00:00 15.2 14 Norte 35 Norte 0 -- -- 53
2017-10-21 13:00:00 13.3 15 Noroeste 27 Noroeste 0 -- -- 74
2017-10-21 12:00:00 12.1 14 Noroeste 23 Noroeste 0 -- -- 95
2017-10-21 11:00:00 11.6 9 Noroeste 18 Noroeste 0 -- -- 97
2017-10-21 10:00:00 11.4 15 Noroeste 26 Noroeste 0.2 -- -- 97
2017-10-21 09:00:00 12.2 13 Norte 25 Noroeste 0.2 -- -- 97
2017-10-21 08:00:00 13.3 8 Oeste 11 Oeste 0.2 -- -- 97
2017-10-21 07:00:00 12.7 4 Sudoeste 10 Sur 0 -- -- 97
2017-10-21 06:00:00 12.7 7 Sudeste 12 Sur 0 -- -- 96
2017-10-21 05:00:00 13.5 7 Sur 10 Sur 0 -- -- 94
2017-10-21 04:00:00 14.3 8 Sudoeste 22 Sudoeste 0 -- -- 94
2017-10-21 03:00:00 14.5 11 Sudoeste 16 Sudoeste 0 -- -- 96
2017-10-21 02:00:00 14.7 8 Sur 18 Sudoeste 0 -- -- 95
2017-10-21 01:00:00 15.5 7 Sur 10 Sudoeste 0 -- -- 96
2017-10-21 00:00:00 15.6 5 Sudoeste 9 Sudoeste 0 -- -- 96
2017-10-20 23:00:00 15.6 6 Sur 14 Sur 0 -- -- 96
2017-10-20 22:00:00 15.7 5 Sudoeste 13 Sur 0 -- -- 95
2017-10-20 21:00:00 15.8 9 Sur 17 Sur 0 -- -- 95
2017-10-20 20:00:00 15.9 10 Sur 17 Sur 0 -- -- 94
2017-10-20 19:00:00 16.2 9 Sur 18 Sur 0.2 -- -- 93
2017-10-20 18:00:00 17 12 Sur 22 Sur 0 -- -- 90
2017-10-20 17:00:00 18.7 14 Sur 22 Sur 0 -- -- 77
2017-10-20 16:00:00 18.8 12 Sur 27 Sudoeste 0 -- -- 76
2017-10-20 15:00:00 19.5 12 Sur 20 Sudoeste 0 -- -- 70
2017-10-20 14:00:00 19.1 11 Sur 19 Sudoeste 0 -- -- 73
2017-10-20 13:00:00 17.9 11 Oeste 23 Norte 0 -- -- 76
2017-10-20 12:00:00 16 12 Sur 16 Sur 0 -- -- 84
2017-10-20 11:00:00 13.8 11 Sur 17 Sur 0 -- -- 92
2017-10-20 10:00:00 12.2 10 Sur 14 Sur 0 -- -- 95
2017-10-20 09:00:00 -- -- -- -- -- -- -- -- --
2017-10-20 08:00:00 -- -- -- -- -- -- -- -- --
2017-10-20 07:00:00 11.3 9 Sur 13 Sur 0 -- -- 96
2017-10-20 06:00:00 10.9 7 Sur 11 Sur 0 -- -- 94
2017-10-20 05:00:00 11.8 8 Sur 12 Sur 0 -- -- 94
2017-10-20 04:00:00 12.3 8 Sur 15 Sur 0 -- -- 91
2017-10-20 03:00:00 12.8 12 Sur 16 Sur 0 -- -- 88
2017-10-20 02:00:00 12.2 11 Sur 21 Sur 0 -- -- 87
2017-10-20 01:00:00 11.7 8 Sudeste 14 Sur 0 -- -- 88
2017-10-20 00:00:00 11.4 7 Sur 12 Sur 0 -- -- 87
2017-10-19 23:00:00 11.9 8 Sur 13 Sur 0 -- -- 85
2017-10-19 22:00:00 12.1 6 Sur 11 Sur 0 -- -- 81
2017-10-19 21:00:00 12.1 7 Sur 9 Sur 0 -- -- 80
2017-10-19 20:00:00 13.2 6 Sur 10 Sur 0 -- -- 78
2017-10-19 19:00:00 13.9 7 Sur 11 Sudoeste 0 -- -- 74
2017-10-19 18:00:00 13.8 5 Oeste 14 Oeste 0 -- -- 74
2017-10-19 17:00:00 14.2 8 Sudoeste 23 Oeste 0 -- -- 70
2017-10-19 16:00:00 14.9 10 Oeste 17 Sudoeste 0 -- -- 60
2017-10-19 15:00:00 14 7 Sudoeste 16 Sudoeste 0 -- -- 58
2017-10-19 14:00:00 13.4 7 Oeste 13 Noroeste 0 -- -- 61
2017-10-19 13:00:00 12.1 4 Oeste 12 Sur 0 -- -- 75
2017-10-19 12:00:00 10.2 5 Sur 11 Sur 0 -- -- 91
2017-10-19 11:00:00 8 8 Sur 12 Sur 0 -- -- 96
2017-10-19 10:00:00 4.9 9 Sur 12 Sur 0 -- -- 97
2017-10-19 09:00:00 3.7 9 Sur 14 Sur 0 -- -- 96
2017-10-19 08:00:00 3.5 7 Sur 12 Sur 0 -- -- 96
2017-10-19 07:00:00 3.2 10 Sur 12 Sur 0 -- -- 95
2017-10-19 06:00:00 3.8 6 Sudeste 12 Sur 0 -- -- 94
2017-10-19 05:00:00 4.6 6 Sur 12 Sur 0 -- -- 94
2017-10-19 04:00:00 4.6 10 Sur 14 Sur 0 -- -- 93
2017-10-19 03:00:00 5.1 11 Sur 16 Sur 0 -- -- 92
2017-10-19 02:00:00 6.2 8 Sur 15 Sur 0 -- -- 92
2017-10-19 01:00:00 7 0 Calma 8 Sur 0 -- -- 89
2017-10-19 00:00:00 7.5 5 Sur 11 Sur 0 -- -- 87
2017-10-18 23:00:00 8.6 7 Sudeste 12 Sudeste 0 -- -- 81
2017-10-18 22:00:00 9.8 8 Noroeste 9 Norte 0 -- -- 76
2017-10-18 21:00:00 10.4 8 Noroeste 19 Noroeste 0 -- -- 72
2017-10-18 20:00:00 11.8 8 Noroeste 16 Oeste 0 -- -- 66
2017-10-18 19:00:00 13.4 14 Noroeste 23 Noroeste 0 -- -- 57
2017-10-18 18:00:00 13.4 14 Noroeste 24 Oeste 0 -- -- 61
2017-10-18 17:00:00 13.5 15 Oeste 33 Oeste 0 -- -- 60
2017-10-18 16:00:00 13.1 17 Noroeste 32 Noroeste 0 -- -- 62
2017-10-18 15:00:00 12.7 18 Noroeste 33 Oeste 0 -- -- 60
2017-10-18 14:00:00 13 20 Oeste 30 Oeste 0 -- -- 69
2017-10-18 13:00:00 11.8 15 Oeste 22 Oeste 0.8 -- -- 80
2017-10-18 12:00:00 9.5 19 Sudoeste 39 Sudoeste 0.8 -- -- 84
2017-10-18 11:00:00 10.4 13 Sudoeste 23 Sudoeste 0 -- -- 93
2017-10-18 10:00:00 9.3 11 Sur 16 Sur 0 -- -- 95
2017-10-18 09:00:00 8.9 11 Sudoeste 24 Sur 0 -- -- 94
2017-10-18 08:00:00 9.2 9 Sur 15 Sur 0 -- -- 94
2017-10-18 07:00:00 9.5 11 Sudeste 31 Sur 1.8 -- -- 93
2017-10-18 06:00:00 9.7 15 Sur 30 Sur 2.2 -- -- 93
2017-10-18 05:00:00 10.4 14 Sur 24 Sur 0.2 -- -- 89
2017-10-18 04:00:00 10.9 13 Sur 35 Sur 0 -- -- 83
2017-10-18 03:00:00 12 24 Sur 33 Sur 0 -- -- 73
2017-10-18 02:00:00 12 11 Sur 22 Sur 0 -- -- 72
2017-10-18 01:00:00 12.3 15 Sur 24 Sur 0 -- -- 70
2017-10-18 00:00:00 12.2 13 Sur 19 Sur 0 -- -- 71
2017-10-17 23:00:00 11.3 8 Sudeste 15 Sur 0 -- -- 73
2017-10-17 22:00:00 11.2 6 Sudeste 17 Sur 0 -- -- 72
2017-10-17 21:00:00 12.3 10 Sur 20 Sur 0 -- -- 65
2017-10-17 20:00:00 13.2 11 Sur 32 Sur 0 -- -- 59
2017-10-17 19:00:00 15.8 25 Sur 42 Sur 0 -- -- 47
2017-10-17 18:00:00 17 26 Sur 42 Sudoeste 0 -- -- 50
2017-10-17 17:00:00 17.4 24 Sur 44 Sudeste 0 -- -- 56
2017-10-17 16:00:00 17 27 Sur 46 Sur 0 -- -- 59
2017-10-17 15:00:00 17.3 23 Sur 48 Sur 0 -- -- 60
2017-10-17 14:00:00 16.7 26 Sur 51 Sur 0 -- -- 73
2017-10-17 13:00:00 15.1 24 Sur 32 Sudoeste 0.2 -- -- 89
2017-10-17 12:00:00 14.5 18 Sur 31 Sur 0.2 -- -- 94
2017-10-17 11:00:00 14.4 15 Sur 29 Sur 0.4 -- -- 94
2017-10-17 10:00:00 14.2 16 Sur 33 Sur 2 -- -- 93
2017-10-17 09:00:00 14.4 22 Sur 45 Sur 0.2 -- -- 91
2017-10-17 08:00:00 15.1 11 Sur 33 Sur 3 -- -- 92
2017-10-17 07:00:00 16.3 20 Sur 39 Sur 0 -- -- 83
2017-10-17 06:00:00 15.8 21 Sur 33 Sur 0 -- -- 85
2017-10-17 05:00:00 16.1 17 Sur 34 Sur 0 -- -- 80
2017-10-17 04:00:00 16.6 16 Sur 31 Sur 0 -- -- 68
2017-10-17 03:00:00 16.9 13 Sur 24 Sur 0 -- -- 68
2017-10-17 02:00:00 17.5 11 Sur 18 Sur 0 -- -- 65
2017-10-17 01:00:00 17.6 12 Sur 18 Sur 0 -- -- 58
2017-10-17 00:00:00 18.5 13 Sudeste 26 Sur 0 -- -- 52
2017-10-16 23:00:00 18.3 9 Sudeste 18 Sur 0 -- -- 49
2017-10-16 22:00:00 18.4 11 Sur 24 Sur 0 -- -- 47
2017-10-16 21:00:00 18.5 9 Sudeste 15 Sur 0 -- -- 46
2017-10-16 20:00:00 19.5 10 Sur 23 Sur 0 -- -- 43
2017-10-16 19:00:00 21.6 17 Sur 33 Sudeste 0 -- -- 38
2017-10-16 18:00:00 22 14 Sur 30 Sur 0 -- -- 40
2017-10-16 17:00:00 21.9 18 Sur 40 Sudeste 0 -- -- 40
2017-10-16 16:00:00 21.6 19 Sur 38 Sur 0 -- -- 40
2017-10-16 15:00:00 21.2 24 Sur 44 Sur 0 -- -- 41
2017-10-16 14:00:00 21.5 30 Sur 43 Sur 0 -- -- 38
2017-10-16 13:00:00 21.2 23 Sur 47 Sur 0 -- -- 40
2017-10-16 12:00:00 20.5 28 Sur 48 Sur 0 -- -- 42
2017-10-16 11:00:00 20.2 22 Sur 41 Sudeste 0 -- -- 41
2017-10-16 10:00:00 17.8 14 Sur 25 Sur 0 -- -- 44
2017-10-16 09:00:00 14.6 11 Sur 15 Sur 0 -- -- 49
2017-10-16 08:00:00 14.8 11 Sur 19 Sur 0 -- -- 48
2017-10-16 07:00:00 16.1 14 Sur 22 Sur 0 -- -- 45
2017-10-16 06:00:00 17 16 Sur 24 Sur 0 -- -- 43
2017-10-16 05:00:00 17.8 16 Sur 24 Sur 0 -- -- 40
2017-10-16 04:00:00 18.1 14 Sur 26 Sur 0 -- -- 41
2017-10-16 03:00:00 17.8 12 Sur 22 Sur 0 -- -- 43
2017-10-16 02:00:00 19 18 Sur 23 Sur 0 -- -- 40
2017-10-16 01:00:00 19.6 14 Sudeste 20 Sudeste 0 -- -- 39
2017-10-16 00:00:00 19.6 9 Sur 18 Sudeste 0 -- -- 40
2017-10-15 23:00:00 21.2 12 Sur 21 Sur 0 -- -- 40
2017-10-15 22:00:00 22.1 11 Sur 27 Sudeste 0 -- -- 40
2017-10-15 21:00:00 23.4 14 Sudeste 26 Sudeste 0 -- -- 37
2017-10-15 20:00:00 24.4 15 Sudeste 30 Sudeste 0 -- -- 34
2017-10-15 19:00:00 26.3 18 Sudeste 38 Sudeste 0 -- -- 32
2017-10-15 18:00:00 27.4 20 Sur 42 Sudeste 0 -- -- 30
2017-10-15 17:00:00 27.5 23 Sudeste 50 Sur 0 -- -- 29
2017-10-15 16:00:00 27.4 26 Sur 49 Sur 0 -- -- 30
2017-10-15 15:00:00 27.3 28 Sudeste 51 Sudeste 0 -- -- 30
2017-10-15 14:00:00 27.2 24 Sudeste 44 Sur 0 -- -- 29
2017-10-15 13:00:00 26.9 24 Sur 46 Sudeste 0 -- -- 30
2017-10-15 12:00:00 25.5 18 Sur 35 Sur 0 -- -- 32
2017-10-15 11:00:00 24.7 16 Sudeste 27 Sudeste 0 -- -- 33
2017-10-15 10:00:00 19.3 10 Sur 14 Sur 0 -- -- 47
2017-10-15 09:00:00 19.1 9 Sudeste 14 Sudeste 0 -- -- 44
2017-10-15 08:00:00 20 9 Sur 42 Sur 0 -- -- 43
2017-10-15 07:00:00 21.2 18 Sur 42 Sur 0 -- -- 39
2017-10-15 06:00:00 19.2 9 Sur 18 Sur 0 -- -- 45
2017-10-15 05:00:00 18.7 13 Sur 19 Sur 0 -- -- 47
2017-10-15 04:00:00 18.8 13 Sur 20 Sur 0 -- -- 47
2017-10-15 03:00:00 19 12 Sur 18 Sur 0 -- -- 45
2017-10-15 02:00:00 19 13 Sur 22 Sur 0 -- -- 45
2017-10-15 01:00:00 19.4 11 Sur 18 Sur 0 -- -- 43
2017-10-15 00:00:00 17.6 9 Sur 15 Sur 0 -- -- 47
2017-10-14 23:00:00 18.6 11 Sur 17 Sur 0 -- -- 44
2017-10-14 22:00:00 19.6 8 Sur 13 Sudeste 0 -- -- 40
2017-10-14 21:00:00 20.7 10 Sur 16 Sur 0 -- -- 37
2017-10-14 20:00:00 23 13 Sur 17 Sur 0 -- -- 33
2017-10-14 19:00:00 24.5 12 Sur 21 Sur 0 -- -- 31
2017-10-14 18:00:00 26.2 17 Sur 28 Sur 0 -- -- 28
2017-10-14 17:00:00 26.4 17 Sur 36 Sur 0 -- -- 28
2017-10-14 16:00:00 26.6 23 Sur 35 Sur 0 -- -- 26
2017-10-14 15:00:00 27.3 23 Sudoeste 33 Sudoeste 0 -- -- 25
2017-10-14 14:00:00 26.8 17 Sur 30 Sudoeste 0 -- -- 26
2017-10-14 13:00:00 24.4 16 Sur 25 Sur 0 -- -- 32
2017-10-14 12:00:00 22.8 14 Sur 23 Sur 0 -- -- 34
2017-10-14 11:00:00 20 13 Sur 20 Sur 0 -- -- 43
2017-10-14 10:00:00 14.3 12 Sur 18 Sur 0 -- -- 58
2017-10-14 09:00:00 12.3 12 Sur 17 Sur 0 -- -- 58
2017-10-14 08:00:00 11.7 12 Sur 17 Sur 0 -- -- 59
2017-10-14 07:00:00 9.4 10 Sudeste 15 Sur 0 -- -- 67
2017-10-14 06:00:00 8.3 11 Sur 15 Sur 0 -- -- 72
2017-10-14 05:00:00 9.6 11 Sur 13 Sur 0 -- -- 65
2017-10-14 04:00:00 10.4 9 Sur 13 Sur 0 -- -- 62
2017-10-14 03:00:00 9.8 12 Sur 14 Sur 0 -- -- 67
2017-10-14 02:00:00 10.6 12 Sur 16 Sur 0 -- -- 64
2017-10-14 01:00:00 11.4 11 Sur 15 Sudeste 0 -- -- 64
2017-10-14 00:00:00 13.8 13 Sur 16 Sur 0 -- -- 57
2017-10-13 23:00:00 15.4 9 Sur 12 Sur 0 -- -- 49
2017-10-13 22:00:00 16.4 7 Sur 13 Sur 0 -- -- 46
2017-10-13 21:00:00 18.3 10 Sur 15 Sur 0 -- -- 45
2017-10-13 20:00:00 21.3 8 Sur 19 Sur 0 -- -- 38
2017-10-13 19:00:00 24.3 13 Sur 23 Sur 0 -- -- 33
2017-10-13 18:00:00 25.1 15 Sur 26 Sur 0 -- -- 31
2017-10-13 17:00:00 25.2 14 Sur 27 Sur 0 -- -- 32
2017-10-13 16:00:00 25.5 16 Sur 29 Sur 0 -- -- 31
2017-10-13 15:00:00 25 17 Sur 30 Sudeste 0 -- -- 33
2017-10-13 14:00:00 24 15 Sur 31 Sudeste 0 -- -- 39
2017-10-13 13:00:00 22.9 17 Sudeste 29 Sur 0 -- -- 45
2017-10-13 12:00:00 21.9 14 Sur 26 Sur 0 -- -- 48
2017-10-13 11:00:00 18 10 Sur 14 Sur 0 -- -- 54
2017-10-13 10:00:00 11.6 8 Sur 15 Sur 0 -- -- 73
2017-10-13 09:00:00 8.8 13 Sur 19 Sur 0 -- -- 79
2017-10-13 08:00:00 9.6 13 Sur 16 Sudeste 0 -- -- 75
2017-10-13 07:00:00 9.7 12 Sur 14 Sur 0 -- -- 76
2017-10-13 06:00:00 10.6 9 Sur 16 Sur 0 -- -- 72
2017-10-13 05:00:00 11.5 9 Sur 17 Sur 0 -- -- 68
2017-10-13 04:00:00 11.3 12 Sur 16 Sudeste 0 -- -- 69
2017-10-13 03:00:00 12.2 11 Sur 14 Sur 0 -- -- 65
2017-10-13 02:00:00 13.7 9 Sur 16 Sur 0 -- -- 58
2017-10-13 01:00:00 14.4 9 Sur 17 Sur 0 -- -- 55
2017-10-13 00:00:00 14.7 12 Sur 18 Sur 0 -- -- 54
2017-10-12 23:00:00 16.8 10 Sur 13 Sur 0 -- -- 47
2017-10-12 22:00:00 17.7 10 Sur 14 Sur 0 -- -- 44
2017-10-12 21:00:00 21.1 8 Sur 13 Sudeste 0 -- -- 36
2017-10-12 20:00:00 23.1 6 Sudoeste 16 Sur 0 -- -- 32
2017-10-12 19:00:00 25.9 11 Sur 27 Sur 0 -- -- 29
2017-10-12 18:00:00 26.7 15 Sur 32 Sur 0 -- -- 27
2017-10-12 17:00:00 27 19 Sur 35 Sur 0 -- -- 27
2017-10-12 16:00:00 27.2 19 Sudeste 33 Sur 0 -- -- 26
2017-10-12 15:00:00 27 17 Sudeste 32 Sur 0 -- -- 26
2017-10-12 14:00:00 26.8 19 Sur 29 Sur 0 -- -- 24
2017-10-12 13:00:00 26.1 13 Sur 26 Sur 0 -- -- 25
2017-10-12 12:00:00 24.4 6 Sur 9 Sur 0 -- -- 28
2017-10-12 11:00:00 18.7 4 Sur 11 Sur 0 -- -- 37
2017-10-12 10:00:00 11.7 9 Sur 15 Sudeste 0 -- -- 54
2017-10-12 09:00:00 9 9 Sur 17 Sur 0 -- -- 58
2017-10-12 08:00:00 8.6 14 Sur 18 Sur 0 -- -- 60
2017-10-12 07:00:00 8.4 14 Sur 17 Sur 0 -- -- 61
2017-10-12 06:00:00 8.4 13 Sur 22 Sur 0 -- -- 61
2017-10-12 05:00:00 8.8 13 Sur 17 Sur 0 -- -- 58
2017-10-12 04:00:00 9.3 13 Sur 17 Sur 0 -- -- 56
2017-10-12 03:00:00 9.5 13 Sur 19 Sudeste 0 -- -- 58
2017-10-12 02:00:00 9.6 12 Sur 18 Sur 0 -- -- 59
2017-10-12 01:00:00 11.9 12 Sur 15 Sudeste 0 -- -- 51
2017-10-12 00:00:00 12.3 9 Sur 14 Sur 0 -- -- 49
2017-10-11 23:00:00 14.5 9 Sur 13 Sudeste 0 -- -- 42
2017-10-11 22:00:00 17.7 9 Sudeste 13 Sudeste 0 -- -- 35
2017-10-11 21:00:00 18.9 7 Sudeste 13 Sudeste 0 -- -- 28
2017-10-11 20:00:00 22.3 2 Norte 13 Noroeste 0 -- -- 21
2017-10-11 19:00:00 24.9 10 Noroeste 19 Oeste 0 -- -- 18
2017-10-11 18:00:00 26.3 5 Oeste 21 Noroeste 0 -- -- 20
2017-10-11 17:00:00 26.5 7 Oeste 22 Oeste 0 -- -- 19
2017-10-11 16:00:00 26.3 11 Noroeste 26 Noroeste 0 -- -- 21
2017-10-11 15:00:00 25.8 8 Sudoeste 31 Sudoeste 0 -- -- 24
2017-10-11 14:00:00 24.9 13 Sudeste 27 Sudeste 0 -- -- 26
2017-10-11 13:00:00 24.6 7 Sudoeste 19 Sudoeste 0 -- -- 28
2017-10-11 12:00:00 22.5 10 Sur 17 Sur 0 -- -- 29
2017-10-11 11:00:00 16.8 7 Sur 13 Sur 0 -- -- 45
2017-10-11 10:00:00 9.9 10 Sudeste 18 Sur 0 -- -- 61
2017-10-11 09:00:00 7 14 Sur 19 Sur 0 -- -- 70
2017-10-11 08:00:00 8.1 14 Sur 17 Sur 0 -- -- 65
2017-10-11 07:00:00 7.9 14 Sur 21 Sur 0 -- -- 66
2017-10-11 06:00:00 9.1 14 Sur 17 Sur 0 -- -- 61
2017-10-11 05:00:00 8.5 13 Sur 17 Sur 0 -- -- 63
2017-10-11 04:00:00 9.1 13 Sur 18 Sur 0 -- -- 59
2017-10-11 03:00:00 8.6 13 Sur 19 Sur 0 -- -- 64
2017-10-11 02:00:00 9.4 12 Sur 18 Sur 0 -- -- 61
2017-10-11 01:00:00 10.2 14 Sur 18 Sur 0 -- -- 57
2017-10-11 00:00:00 12.1 14 Sur 19 Sur 0 -- -- 51
2017-10-10 23:00:00 14.6 10 Sur 14 Sur 0 -- -- 40
2017-10-10 22:00:00 16.9 9 Sur 13 Sur 0 -- -- 35
2017-10-10 21:00:00 17.8 10 Sur 15 Sur 0 -- -- 32
2017-10-10 20:00:00 20.8 12 Sur 18 Sur 0 -- -- 27
2017-10-10 19:00:00 24.8 16 Sur 27 Sur 0 -- -- 20
2017-10-10 18:00:00 26 18 Sur 28 Sur 0 -- -- 18
2017-10-10 17:00:00 26.8 14 Sudoeste 27 Sur 0 -- -- 18
2017-10-10 16:00:00 27.3 11 Sudoeste 21 Norte 0 -- -- 18
2017-10-10 15:00:00 26.3 8 Noroeste 23 Norte 0 -- -- 19
2017-10-10 14:00:00 25 7 Norte 12 Norte 0 -- -- 22
2017-10-10 13:00:00 22.6 6 Norte 12 Norte 0 -- -- 25
2017-10-10 12:00:00 21.1 4 Sur 9 Sur 0 -- -- 25
2017-10-10 11:00:00 15.6 5 Sur 7 Sur 0 -- -- 40
2017-10-10 10:00:00 9.1 6 Sur 13 Sur 0 -- -- 56
2017-10-10 09:00:00 5.7 12 Sur 17 Sur 0 -- -- 62
2017-10-10 08:00:00 6.1 15 Sur 21 Sur 0 -- -- 59
2017-10-10 07:00:00 5.7 15 Sur 22 Sur 0 -- -- 62
2017-10-10 06:00:00 7.3 12 Sur 19 Sur 0 -- -- 52
2017-10-10 05:00:00 6.2 15 Sur 19 Sur 0 -- -- 59
2017-10-10 04:00:00 7.2 15 Sur 17 Sur 0 -- -- 54
2017-10-10 03:00:00 7.6 14 Sur 18 Sur 0 -- -- 55
2017-10-10 02:00:00 8.9 12 Sur 14 Sudeste 0 -- -- 54
2017-10-10 01:00:00 10.5 10 Sur 15 Sudeste 0 -- -- 46
2017-10-10 00:00:00 12.1 12 Sur 15 Sudeste 0 -- -- 41
2017-10-09 23:00:00 14 12 Sur 14 Sudeste 0 -- -- 33
2017-10-09 22:00:00 15.8 12 Sur 15 Sur 0 -- -- 28
2017-10-09 21:00:00 20 5 Nordeste 9 Nordeste 0 -- -- 19
2017-10-09 20:00:00 22.7 6 Nordeste 17 Norte 0 -- -- 19
2017-10-09 19:00:00 25.7 12 Norte 23 Norte 0 -- -- 16
2017-10-09 18:00:00 26.5 14 Noroeste 23 Norte 0 -- -- 15
2017-10-09 17:00:00 26.6 11 Norte 24 Norte 0 -- -- 18
2017-10-09 16:00:00 26.9 8 Oeste 16 Oeste 0 -- -- 17
2017-10-09 15:00:00 25.1 7 Norte 15 Nordeste 0 -- -- 20
2017-10-09 14:00:00 23.3 6 Norte 13 Nordeste 0 -- -- 24
2017-10-09 13:00:00 21.2 6 Norte 10 Norte 0 -- -- 28
2017-10-09 12:00:00 18.8 4 Norte 6 Norte 0 -- -- 32
2017-10-09 11:00:00 14 3 Sudeste 13 Sudoeste 0 -- -- 46
2017-10-09 10:00:00 8.3 10 Sur 14 Sur 0 -- -- 57
2017-10-09 09:00:00 5.8 13 Sur 17 Sur 0 -- -- 63
2017-10-09 08:00:00 5.6 13 Sur 16 Sur 0 -- -- 65
2017-10-09 07:00:00 6.9 13 Sur 15 Sudeste 0 -- -- 59
2017-10-09 06:00:00 7.2 13 Sur 18 Sur 0 -- -- 58
2017-10-09 05:00:00 7.6 15 Sur 17 Sur 0 -- -- 57
2017-10-09 04:00:00 8.9 12 Sur 18 Sur 0 -- -- 52
2017-10-09 03:00:00 8.9 13 Sur 16 Sudeste 0 -- -- 55
2017-10-09 02:00:00 10.1 12 Sur 15 Sudeste 0 -- -- 50
2017-10-09 01:00:00 -- -- -- -- -- -- -- -- --
2017-10-09 00:00:00 -- -- -- -- -- -- -- -- --
2017-10-08 23:00:00 16.8 6 Sudoeste 13 Oeste 0 -- -- 28
2017-10-08 22:00:00 18.2 9 Sudeste 15 Sudeste 0 -- -- 24
2017-10-08 21:00:00 21.9 7 Norte 12 Norte 0 -- -- 19
2017-10-08 20:00:00 23.8 10 Norte 20 Noroeste 0 -- -- 17
2017-10-08 19:00:00 27 12 Norte 19 Norte 0 -- -- 15
2017-10-08 18:00:00 27.4 9 Nordeste 18 Nordeste 0 -- -- 15
2017-10-08 17:00:00 27.6 9 Nordeste 17 Norte 0 -- -- 17
2017-10-08 16:00:00 27.6 5 Este 17 Nordeste 0 -- -- 17
2017-10-08 15:00:00 27 8 Norte 22 Nordeste 0 -- -- 16
2017-10-08 14:00:00 25.8 10 Norte 17 Nordeste 0 -- -- 18
2017-10-08 13:00:00 24.7 5 Noroeste 10 Noroeste 0 -- -- 20
2017-10-08 12:00:00 22.1 6 Norte 10 Norte 0 -- -- 24
2017-10-08 11:00:00 16.5 6 Sur 16 Sur 0 -- -- 32
2017-10-08 10:00:00 8.9 12 Sur 18 Sur 0 -- -- 52
2017-10-08 09:00:00 5.1 13 Sur 20 Sur 0 -- -- 59
2017-10-08 08:00:00 5.2 13 Sur 24 Sur 0 -- -- 60
2017-10-08 07:00:00 5.1 11 Sur 18 Sudeste 0 -- -- 67
2017-10-08 06:00:00 6.3 10 Sur 16 Sur 0 -- -- 56
2017-10-08 05:00:00 6.8 11 Sur 17 Sur 0 -- -- 59
2017-10-08 04:00:00 8.6 11 Sur 13 Sur 0 -- -- 46
2017-10-08 03:00:00 9 10 Sur 16 Sur 0 -- -- 46
2017-10-08 02:00:00 8.8 12 Sur 20 Sur 0 -- -- 54
2017-10-08 01:00:00 10.6 12 Sur 15 Sur 0 -- -- 50
2017-10-08 00:00:00 12.4 10 Sur 13 Sur 0 -- -- 38
2017-10-07 23:00:00 14.9 8 Sur 11 Sur 0 -- -- 28
2017-10-07 22:00:00 18.3 3 Este 15 Nordeste 0 -- -- 19
2017-10-07 21:00:00 20.6 10 Nordeste 15 Nordeste 0 -- -- 16
2017-10-07 20:00:00 22.8 8 Nordeste 16 Norte 0 -- -- 16
2017-10-07 19:00:00 25.6 10 Norte 18 Noroeste 0 -- -- 17
2017-10-07 18:00:00 25.9 10 Noroeste 19 Norte 0 -- -- 19
2017-10-07 17:00:00 25.8 9 Norte 21 Nordeste 0 -- -- 21
2017-10-07 16:00:00 25.1 8 Norte 19 Norte 0 -- -- 25
2017-10-07 15:00:00 23.7 10 Nordeste 17 Norte 0 -- -- 27
2017-10-07 14:00:00 21.9 11 Norte 19 Norte 0 -- -- 29
2017-10-07 13:00:00 20 6 Norte 13 Norte 0 -- -- 32
2017-10-07 12:00:00 16.1 8 Norte 16 Norte 0 -- -- 47
2017-10-07 11:00:00 12.4 6 Norte 14 Norte 0 -- -- 61
2017-10-07 10:00:00 9.6 8 Norte 12 Norte 0 -- -- 74
2017-10-07 09:00:00 8.5 4 Norte 14 Norte 0 -- -- 79
2017-10-07 08:00:00 9.2 6 Norte 22 Noroeste 0 -- -- 76
2017-10-07 07:00:00 9.4 14 Norte 18 Norte 0 -- -- 76
2017-10-07 06:00:00 10.5 4 Noroeste 12 Norte 0 -- -- 71
2017-10-07 05:00:00 12.1 9 Norte 19 Norte 0 -- -- 62
2017-10-07 04:00:00 13.2 7 Norte 21 Norte 0 -- -- 56
2017-10-07 03:00:00 14.7 11 Norte 15 Norte 0 -- -- 50
2017-10-07 02:00:00 15.9 5 Norte 12 Norte 0 -- -- 47
2017-10-07 01:00:00 16.3 2 Norte 12 Norte 0 -- -- 43
2017-10-07 00:00:00 18.4 7 Nordeste 21 Nordeste 0 -- -- 37
2017-10-06 23:00:00 19.9 12 Nordeste 20 Nordeste 0 -- -- 34
2017-10-06 22:00:00 20.7 9 Nordeste 21 Nordeste 0 -- -- 29
2017-10-06 21:00:00 22.3 14 Nordeste 22 Nordeste 0 -- -- 28
2017-10-06 20:00:00 23.7 10 Nordeste 24 Norte 0 -- -- 26
2017-10-06 19:00:00 26.1 18 Norte 31 Norte 0 -- -- 23
2017-10-06 18:00:00 27.3 17 Norte 30 Nordeste 0 -- -- 22
2017-10-06 17:00:00 27.5 19 Norte 32 Norte 0 -- -- 23
2017-10-06 16:00:00 27.5 19 Norte 32 Norte 0 -- -- 22
2017-10-06 15:00:00 26.6 16 Norte 28 Nordeste 0 -- -- 24
2017-10-06 14:00:00 24.5 16 Norte 27 Norte 0 -- -- 32
2017-10-06 13:00:00 21.7 14 Norte 22 Norte 0 -- -- 44
2017-10-06 12:00:00 18.4 12 Norte 19 Norte 0 -- -- 56
2017-10-06 11:00:00 14.9 9 Norte 14 Norte 0 -- -- 63
2017-10-06 10:00:00 12.3 9 Norte 13 Norte 0 -- -- 68
2017-10-06 09:00:00 9.1 3 Sudoeste 5 Sur 0 -- -- 80
2017-10-06 08:00:00 9.1 4 Sur 10 Sur 0 -- -- 82
2017-10-06 07:00:00 10.2 0 Calma 13 Sudeste 0 -- -- 78
2017-10-06 06:00:00 10.4 12 Sur 14 Sur 0 -- -- 78
2017-10-06 05:00:00 11.3 9 Sur 13 Sur 0 -- -- 75
2017-10-06 04:00:00 12.6 10 Sur 14 Sudeste 0 -- -- 70
2017-10-06 03:00:00 13.3 9 Sur 12 Sudeste 0 -- -- 69
2017-10-06 02:00:00 14.8 10 Sur 13 Sur 0 -- -- 64
2017-10-06 01:00:00 15.1 10 Sur 13 Sur 0 -- -- 63
2017-10-06 00:00:00 19.2 3 Oeste 6 Sudoeste 0 -- -- 45
2017-10-05 23:00:00 21.4 3 Noroeste 16 Oeste 0 -- -- 39
2017-10-05 22:00:00 22.9 10 Oeste 18 Noroeste 0 -- -- 36
2017-10-05 21:00:00 23.8 8 Sudoeste 17 Sudoeste 0 -- -- 39
2017-10-05 20:00:00 26.7 8 Sudoeste 17 Sur 0 -- -- 34
2017-10-05 19:00:00 29.5 8 Norte 17 Noroeste 0 -- -- 27
2017-10-05 18:00:00 30.7 8 Noroeste 21 Sudoeste 0 -- -- 26
2017-10-05 17:00:00 30.5 5 Sudoeste 21 Sur 0 -- -- 29
2017-10-05 16:00:00 29.7 8 Sudoeste 24 Sur 0 -- -- 30
2017-10-05 15:00:00 29.6 9 Sur 20 Sudoeste 0 -- -- 30
2017-10-05 14:00:00 29 9 Oeste 17 Sur 0 -- -- 30
2017-10-05 13:00:00 28.3 10 Sur 23 Sudoeste 0 -- -- 31
2017-10-05 12:00:00 26.3 10 Sur 18 Sur 0 -- -- 39
2017-10-05 11:00:00 22.9 13 Sur 19 Sur 0 -- -- 48
2017-10-05 10:00:00 16.3 11 Sur 20 Sur 0 -- -- 67
2017-10-05 09:00:00 12.7 13 Sur 19 Sur 0 -- -- 74
2017-10-05 08:00:00 12.9 8 Sur 14 Sur 0 -- -- 68
2017-10-05 07:00:00 12.3 9 Sur 17 Sur 0 -- -- 71
2017-10-05 06:00:00 11.8 13 Sur 16 Sur 0 -- -- 73
2017-10-05 05:00:00 12.4 12 Sur 19 Sur 0 -- -- 72
2017-10-05 04:00:00 13 11 Sur 22 Sur 0 -- -- 71
2017-10-05 03:00:00 14 9 Sur 16 Sur 0 -- -- 71
2017-10-05 02:00:00 15.1 9 Norte 14 Nordeste 0 -- -- 66
2017-10-05 01:00:00 16.2 10 Sur 15 Sur 0 -- -- 64
2017-10-05 00:00:00 17.7 11 Sur 14 Sur 0 -- -- 59
2017-10-04 23:00:00 19 9 Sur 14 Sur 0 -- -- 57
2017-10-04 22:00:00 20.3 9 Sur 13 Sur 0 -- -- 56
2017-10-04 21:00:00 22.3 8 Sur 13 Sur 0 -- -- 51
2017-10-04 20:00:00 25.5 10 Sur 25 Sur 0 -- -- 43
2017-10-04 19:00:00 27.9 19 Sur 26 Sur 0 -- -- 37
2017-10-04 18:00:00 28.4 19 Sur 27 Sur 0 -- -- 36
2017-10-04 17:00:00 29.2 16 Sur 33 Sur 0 -- -- 36
2017-10-04 16:00:00 28.8 15 Sur 31 Sudeste 0 -- -- 36
2017-10-04 15:00:00 28.3 16 Sur 31 Sudeste 0 -- -- 36
2017-10-04 14:00:00 28.2 15 Sur 26 Sudeste 0 -- -- 36
2017-10-04 13:00:00 27 7 Sudeste 21 Sur 0 -- -- 37
2017-10-04 12:00:00 23.3 5 Norte 9 Norte 0 -- -- 42
2017-10-04 11:00:00 18.5 3 Sur 11 Sur 0 -- -- 56
2017-10-04 10:00:00 13 10 Sur 12 Sur 0 -- -- 73
2017-10-04 09:00:00 10.3 10 Sur 13 Sudeste 0 -- -- 80
2017-10-04 08:00:00 10.9 10 Sur 13 Sur 0 -- -- 76
2017-10-04 07:00:00 11.2 9 Sur 17 Sur 0 -- -- 78
2017-10-04 06:00:00 10.9 13 Sur 17 Sur 0 -- -- 81
2017-10-04 05:00:00 12.6 8 Sur 13 Sur 0 -- -- 73
2017-10-04 04:00:00 12.2 12 Sur 15 Sur 0 -- -- 77
2017-10-04 03:00:00 14.2 11 Sur 16 Sur 0 -- -- 67
2017-10-04 02:00:00 14.5 9 Sur 18 Sur 0 -- -- 67
2017-10-04 01:00:00 16.5 8 Sur 12 Sur 0 -- -- 58
2017-10-04 00:00:00 21.1 5 Noroeste 11 Norte 0 -- -- 44
2017-10-03 23:00:00 22.1 5 Norte 15 Oeste 0 -- -- 43
2017-10-03 22:00:00 22.7 13 Noroeste 17 Noroeste 0 -- -- 43
2017-10-03 21:00:00 24.4 3 Norte 12 Norte 0 -- -- 35
2017-10-03 20:00:00 27.3 9 Norte 18 Norte 0 -- -- 31
2017-10-03 19:00:00 29.6 10 Norte 23 Norte 0 -- -- 27
2017-10-03 18:00:00 30.1 15 Norte 28 Norte 0 -- -- 27
2017-10-03 17:00:00 30.1 17 Noroeste 30 Noroeste 0 -- -- 29
2017-10-03 16:00:00 30.3 15 Noroeste 27 Norte 0 -- -- 30
2017-10-03 15:00:00 29.5 7 Noroeste 29 Noroeste 0 -- -- 37
2017-10-03 14:00:00 28.5 6 Nordeste 18 Norte 0 -- -- 40
2017-10-03 13:00:00 27.6 8 Norte 15 Norte 0 -- -- 43
2017-10-03 12:00:00 25.9 5 Sur 10 Norte 0 -- -- 46
2017-10-03 11:00:00 21.9 4 Sur 12 Sur 0 -- -- 58
2017-10-03 10:00:00 15.7 9 Sur 15 Sur 0 -- -- 80
2017-10-03 09:00:00 12.6 11 Sur 14 Sur 0 -- -- 86
2017-10-03 08:00:00 12.1 12 Sur 17 Sur 0 -- -- 87
2017-10-03 07:00:00 12.6 12 Sur 14 Sur 0 -- -- 85
2017-10-03 06:00:00 12.7 11 Sur 18 Sur 0 -- -- 86
2017-10-03 05:00:00 14.2 8 Sur 12 Sudeste 0 -- -- 80
2017-10-03 04:00:00 14 9 Sur 14 Sur 0 -- -- 81
2017-10-03 03:00:00 14.7 12 Sur 15 Sur 0 -- -- 80
2017-10-03 02:00:00 16.1 8 Sur 12 Sur 0 -- -- 73
2017-10-03 01:00:00 17.4 9 Sur 11 Sur 0 -- -- 68
2017-10-03 00:00:00 19 4 Sur 14 Este 0 -- -- 61
2017-10-02 23:00:00 21.8 12 Este 16 Este 0 -- -- 53
2017-10-02 22:00:00 23 11 Este 17 Nordeste 0 -- -- 50
2017-10-02 21:00:00 24.3 7 Nordeste 13 Nordeste 0 -- -- 47
2017-10-02 20:00:00 26.3 10 Nordeste 20 Norte 0 -- -- 43
2017-10-02 19:00:00 27.8 12 Norte 23 Norte 0 -- -- 40
2017-10-02 18:00:00 28.2 14 Norte 25 Norte 0 -- -- 40
2017-10-02 17:00:00 28.1 13 Norte 25 Norte 0 -- -- 40
2017-10-02 16:00:00 27.9 15 Norte 26 Nordeste 0 -- -- 39
2017-10-02 15:00:00 27.4 11 Norte 23 Nordeste 0 -- -- 40
2017-10-02 14:00:00 26.4 11 Norte 25 Nordeste 0 -- -- 41
2017-10-02 13:00:00 24.6 12 Norte 22 Norte 0 -- -- 43
2017-10-02 12:00:00 21.9 13 Norte 19 Norte 0 -- -- 50
2017-10-02 11:00:00 20.2 10 Norte 14 Norte 0 -- -- 53
2017-10-02 10:00:00 13.9 0 Calma 10 Sudeste 0 -- -- 74
2017-10-02 09:00:00 10.6 6 Sur 10 Sudeste 0 -- -- 81
2017-10-02 08:00:00 10.5 6 Sur 11 Sur 0 -- -- 82
2017-10-02 07:00:00 11.7 2 Este 6 Nordeste 0 -- -- 76
2017-10-02 06:00:00 12.1 3 Nordeste 9 Sur 0 -- -- 75
2017-10-02 05:00:00 12.4 8 Sur 13 Sur 0 -- -- 74
2017-10-02 04:00:00 12.4 12 Sur 17 Sur -- -- -- 74
2017-10-02 03:00:00 13.6 7 Sur 10 Sur 0 -- -- 70
2017-10-02 02:00:00 17.5 3 Norte 5 Norte 0 -- -- 53
2017-10-02 01:00:00 17.8 3 Noroeste 9 Nordeste 0 -- -- 52
2017-10-02 00:00:00 19.1 6 Nordeste 10 Nordeste 0 -- -- 49
2017-10-01 23:00:00 20 7 Nordeste 11 Nordeste 0 -- -- 47
2017-10-01 22:00:00 20.8 5 Norte 12 Norte 0 -- -- 44
2017-10-01 21:00:00 21.9 5 Norte 13 Norte 0 -- -- 41
2017-10-01 20:00:00 24.5 9 Norte 22 Norte 0 -- -- 36
2017-10-01 19:00:00 25.9 12 Nordeste 26 Nordeste 0 -- -- 35
2017-10-01 18:00:00 26 12 Nordeste 27 Nordeste 0 -- -- 35
2017-10-01 17:00:00 26.3 15 Norte 31 Norte 0 -- -- 35
2017-10-01 16:00:00 25.5 15 Nordeste 35 Norte 0 -- -- 37
2017-10-01 15:00:00 24.7 14 Norte 31 Norte 0 -- -- 40
2017-10-01 14:00:00 23.7 16 Nordeste 31 Norte 0 -- -- 43
2017-10-01 13:00:00 21.2 12 Norte 22 Norte 0 -- -- 53
2017-10-01 12:00:00 18.2 8 Norte 17 Norte 0 -- -- 60
2017-10-01 11:00:00 14.9 5 Nordeste 16 Nordeste 0 -- -- 68
2017-10-01 10:00:00 12.6 9 Norte 13 Noroeste 0 -- -- 77
2017-10-01 09:00:00 11 5 Norte 9 Norte 0 -- -- 81
2017-10-01 08:00:00 11 3 Norte 12 Noroeste 0 -- -- 81
2017-10-01 07:00:00 11.3 8 Noroeste 12 Noroeste 0 -- -- 80
2017-10-01 06:00:00 12.2 4 Norte 18 Norte 0 -- -- 76
2017-10-01 05:00:00 12.2 6 Norte 12 Norte 0 -- -- 75
2017-10-01 04:00:00 12.5 5 Norte 10 Norte 0 -- -- 74
2017-10-01 03:00:00 13.4 8 Norte 16 Norte 0 -- -- 71
2017-10-01 02:00:00 13.9 5 Norte 9 Norte 0 -- -- 69
2017-10-01 01:00:00 15.2 5 Norte 14 Norte 0 -- -- 64
2017-10-01 00:00:00 16.1 9 Norte 20 Norte 0 -- -- 60
2017-09-30 23:00:00 16.9 10 Norte 17 Noroeste 0 -- -- 58
2017-09-30 22:00:00 17.9 9 Norte 16 Noroeste 0 -- -- 58
2017-09-30 21:00:00 19.7 9 Norte 18 Norte 0 -- -- 52
2017-09-30 20:00:00 20.8 11 Norte 26 Norte 0 -- -- 50
2017-09-30 19:00:00 22.2 16 Norte 29 Norte 0 -- -- 45
2017-09-30 18:00:00 23.3 19 Noroeste 32 Norte 0 -- -- 36
2017-09-30 17:00:00 23.9 19 Norte 29 Norte 0 -- -- 31
2017-09-30 16:00:00 23.6 15 Norte 26 Noroeste 0 -- -- 32
2017-09-30 15:00:00 22 13 Norte 23 Noroeste 0 -- -- 45
2017-09-30 14:00:00 21.5 10 Noroeste 20 Norte 0 -- -- 59
2017-09-30 13:00:00 19.8 10 Norte 22 Nordeste 0 -- -- 66
2017-09-30 12:00:00 17.3 6 Norte 18 Noroeste 0 -- -- 78
2017-09-30 11:00:00 15.3 3 Norte 8 Norte 0 -- -- 92
2017-09-30 10:00:00 11.7 4 Norte 9 Sudeste 0 -- -- 95
2017-09-30 09:00:00 9.8 3 Sudeste 10 Sur 0 -- -- 92
2017-09-30 08:00:00 9.3 9 Sur 13 Sur 0 -- -- 91
2017-09-30 07:00:00 10 9 Sur 13 Sur 0 -- -- 88
2017-09-30 06:00:00 10.7 4 Sudoeste 10 Sur 0 -- -- 87
2017-09-30 05:00:00 11.2 9 Sur 13 Sur 0 -- -- 82
2017-09-30 04:00:00 12.1 7 Sur 8 Sur 0 -- -- 79
2017-09-30 03:00:00 15.4 4 Noroeste 8 Noroeste 0 -- -- 74
2017-09-30 02:00:00 16.1 4 Norte 5 Norte 0 -- -- 67
2017-09-30 01:00:00 16.6 4 Norte 6 Norte 0 -- -- 64
2017-09-30 00:00:00 17.5 2 Noroeste 6 Sur 0 -- -- 61
2017-09-29 23:00:00 18.2 5 Sur 17 Noroeste 0 -- -- 56
2017-09-29 22:00:00 20.9 16 Noroeste 27 Noroeste 0 -- -- 48
2017-09-29 21:00:00 22.4 13 Noroeste 21 Oeste 0 -- -- 41
2017-09-29 20:00:00 24.1 8 Sudoeste 21 Sudoeste 0 -- -- 41
2017-09-29 19:00:00 26.3 15 Sur 28 Sudoeste 0 -- -- 36
2017-09-29 18:00:00 26.6 16 Sudoeste 28 Sudoeste 0 -- -- 36
2017-09-29 17:00:00 26.4 12 Sur 31 Sudoeste 0 -- -- 36
2017-09-29 16:00:00 27.2 20 Sudoeste 39 Sur 0 -- -- 34
2017-09-29 15:00:00 26.6 12 Sudoeste 31 Sur 0 -- -- 36
2017-09-29 14:00:00 25.9 11 Sur 25 Sur 0 -- -- 37
2017-09-29 13:00:00 24.6 3 Noroeste 10 Norte 0 -- -- 40
2017-09-29 12:00:00 22.1 5 Norte 9 Norte 0 -- -- 48
2017-09-29 11:00:00 17.8 2 Sudeste 10 Sudeste 0 -- -- 63
2017-09-29 10:00:00 13.2 7 Sur 9 Sur 0 -- -- 74
2017-09-29 09:00:00 11.6 7 Sur 12 Sur 0 -- -- 80
2017-09-29 08:00:00 10.1 10 Sur 16 Sudeste 0 -- -- 82
2017-09-29 07:00:00 10.2 10 Sur 16 Sur 0 -- -- 81
2017-09-29 06:00:00 10.2 10 Sur 14 Sur 0 -- -- 78
2017-09-29 05:00:00 10.9 8 Sur 13 Sur 0 -- -- 74
2017-09-29 04:00:00 11.4 9 Sur 13 Sur 0 -- -- 74
2017-09-29 03:00:00 12.9 6 Sudeste 10 Sur 0 -- -- 65
2017-09-29 02:00:00 13.5 6 Sur 10 Sudeste 0 -- -- 63
2017-09-29 01:00:00 14.9 8 Sur 10 Noroeste 0 -- -- 61
2017-09-29 00:00:00 18.2 8 Noroeste 13 Noroeste 0 -- -- 52
2017-09-28 23:00:00 17.9 6 Oeste 10 Sur 0 -- -- 45
2017-09-28 22:00:00 19 8 Sur 11 Sur 0 -- -- 43
2017-09-28 21:00:00 20.5 7 Sur 12 Sur 0 -- -- 39
2017-09-28 20:00:00 23.5 9 Sur 22 Sur 0 -- -- 35
2017-09-28 19:00:00 25.4 14 Sur 25 Sur 0 -- -- 28
2017-09-28 18:00:00 26.1 16 Sur 27 Sur 0 -- -- 26
2017-09-28 17:00:00 26.3 13 Sudoeste 27 Sudoeste 0 -- -- 25
2017-09-28 16:00:00 26.1 18 Sudoeste 29 Sur 0 -- -- 28
2017-09-28 15:00:00 25.3 12 Sur 31 Sur 0 -- -- 30
2017-09-28 14:00:00 24.6 15 Sur 25 Sudeste 0 -- -- 30
2017-09-28 13:00:00 24.1 14 Sur 27 Sur 0 -- -- 30
2017-09-28 12:00:00 23 12 Sur 22 Sur 0 -- -- 34
2017-09-28 11:00:00 19.6 12 Sur 16 Sur 0 -- -- 43
2017-09-28 10:00:00 11.9 9 Sur 17 Sur 0 -- -- 67
2017-09-28 09:00:00 8.1 11 Sur 19 Sur 0 -- -- 77
2017-09-28 08:00:00 7.5 12 Sur 17 Sur 0 -- -- 77
2017-09-28 07:00:00 7.8 13 Sur 22 Sur 0 -- -- 74
2017-09-28 06:00:00 8.3 12 Sur 17 Sur 0 -- -- 76
2017-09-28 05:00:00 10.2 7 Sudeste 10 Sur 0 -- -- 68
2017-09-28 04:00:00 11.4 7 Sur 10 Sur 0 -- -- 57
2017-09-28 03:00:00 12.9 3 Sur 8 Sur 0 -- -- 52
2017-09-28 02:00:00 12.8 0 Calma 14 Sur 0 -- -- 54
2017-09-28 01:00:00 13.1 10 Sur 16 Sur 0 -- -- 56
2017-09-28 00:00:00 14.3 10 Sur 17 Sudeste 0 -- -- 53
2017-09-27 23:00:00 15.1 10 Sur 17 Sur 0 -- -- 51
2017-09-27 22:00:00 17.4 9 Sur 14 Sudeste 0 -- -- 47
2017-09-27 21:00:00 19.6 8 Sudeste 12 Sudeste 0 -- -- 38
2017-09-27 20:00:00 22.8 9 Sur 21 Sudoeste 0 -- -- 32
2017-09-27 19:00:00 24.6 15 Sur 27 Sudoeste 0 -- -- 28
2017-09-27 18:00:00 24.9 19 Sur 29 Sudoeste 0 -- -- 27
2017-09-27 17:00:00 25.1 21 Sur 31 Sur 0 -- -- 29
2017-09-27 16:00:00 24.4 18 Sur 32 Sur 0 -- -- 31
2017-09-27 15:00:00 24.2 14 Sur 30 Sur 0 -- -- 33
2017-09-27 14:00:00 23.8 20 Sur 35 Sur 0 -- -- 35
2017-09-27 13:00:00 24 17 Sur 34 Sudeste 0 -- -- 33
2017-09-27 12:00:00 23.2 16 Sudeste 36 Sur 0 -- -- 35
2017-09-27 11:00:00 19.5 11 Sur 18 Sur 0 -- -- 45
2017-09-27 10:00:00 11.1 9 Sur 17 Sur 0 -- -- 71
2017-09-27 09:00:00 6.4 11 Sur 17 Sur 0 -- -- 82
2017-09-27 08:00:00 6.2 14 Sur 17 Sur 0 -- -- 81
2017-09-27 07:00:00 6.2 15 Sur 22 Sur 0 -- -- 80
2017-09-27 06:00:00 6.6 13 Sur 19 Sur 0 -- -- 80
2017-09-27 05:00:00 8.1 11 Sur 13 Sur 0 -- -- 74
2017-09-27 04:00:00 8.8 12 Sur 18 Sur 0 -- -- 71
2017-09-27 03:00:00 9.1 12 Sur 15 Sudeste 0 -- -- 71
2017-09-27 02:00:00 10.1 9 Sur 16 Sur 0 -- -- 67
2017-09-27 01:00:00 12.1 5 Sur 9 Sudeste 0 -- -- 58
2017-09-27 00:00:00 14.4 3 Sudoeste 10 Sur 0 -- -- 46
2017-09-26 23:00:00 15.2 8 Sur 13 Sur 0 -- -- 48
2017-09-26 22:00:00 18.2 0 Calma 9 Nordeste 0 -- -- 35
2017-09-26 21:00:00 20.2 4 Norte 10 Norte 0 -- -- 33
2017-09-26 20:00:00 23.2 9 Norte 18 Norte 0 -- -- 27
2017-09-26 19:00:00 25 9 Noroeste 18 Noroeste 0 -- -- 24
2017-09-26 18:00:00 25.1 10 Norte 18 Norte 0 -- -- 24
2017-09-26 17:00:00 25.5 10 Oeste 20 Noroeste 0 -- -- 24
2017-09-26 16:00:00 25.1 5 Sur 16 Oeste 0 -- -- 27
2017-09-26 15:00:00 23.4 8 Norte 16 Oeste 0 -- -- 33
2017-09-26 14:00:00 22.1 6 Norte 17 Noroeste 0 -- -- 39
2017-09-26 13:00:00 19.8 6 Noroeste 13 Noroeste 0 -- -- 47
2017-09-26 12:00:00 17 4 Norte 10 Norte 0 -- -- 58
2017-09-26 11:00:00 13.8 2 Norte 5 Sur 0 -- -- 75
2017-09-26 10:00:00 8.8 5 Sur 11 Sudeste 0 -- -- 93
2017-09-26 09:00:00 5.1 11 Sur 13 Sur 0 -- -- 93
2017-09-26 08:00:00 5.2 8 Sur 15 Sur 0 -- -- 92
2017-09-26 07:00:00 6.1 4 Sur 10 Sur 0 -- -- 89
2017-09-26 06:00:00 6.4 9 Sur 12 Sur 0 -- -- 86
2017-09-26 05:00:00 6.8 10 Sur 14 Sur 0 -- -- 85
2017-09-26 04:00:00 9 0 Calma 6 Noroeste 0 -- -- 77
2017-09-26 03:00:00 9.9 0 Calma 6 Sur 0 -- -- 78
2017-09-26 02:00:00 11.4 2 Sudoeste 4 Sudoeste 0 -- -- 71
2017-09-26 01:00:00 11.4 3 Sur 6 Sur 0 -- -- 63
2017-09-26 00:00:00 14.6 4 Noroeste 12 Norte 0 -- -- 56
2017-09-25 23:00:00 16.1 5 Norte 8 Norte 0 -- -- 44
2017-09-25 22:00:00 17.1 6 Norte 13 Norte 0 -- -- 43
2017-09-25 21:00:00 17.7 9 Norte 17 Noroeste 0 -- -- 41
2017-09-25 20:00:00 20.3 14 Noroeste 22 Noroeste 0 -- -- 34
2017-09-25 19:00:00 21.8 17 Norte 30 Noroeste 0 -- -- 31
2017-09-25 18:00:00 22.4 15 Norte 30 Norte 0 -- -- 30
2017-09-25 17:00:00 21.9 17 Norte 32 Norte 0 -- -- 35
2017-09-25 16:00:00 21.7 20 Norte 32 Norte 0 -- -- 35
2017-09-25 15:00:00 20.3 14 Norte 31 Norte 0 -- -- 41
2017-09-25 14:00:00 19.3 19 Norte 31 Norte 0 -- -- 50
2017-09-25 13:00:00 18.1 15 Norte 27 Noroeste 0 -- -- 58
2017-09-25 12:00:00 15.8 13 Norte 25 Norte 0 -- -- 70
2017-09-25 11:00:00 14 14 Norte 22 Noroeste 0 -- -- 81
2017-09-25 10:00:00 11.7 4 Norte 9 Norte 0 -- -- 95
2017-09-25 09:00:00 10.4 5 Norte 8 Norte 0 -- -- 94
2017-09-25 08:00:00 10.9 5 Norte 10 Norte 0 -- -- 94
2017-09-25 07:00:00 10.6 6 Norte 9 Norte 0 -- -- 93
2017-09-25 06:00:00 12.2 6 Norte 15 Noroeste 0 -- -- 93
2017-09-25 05:00:00 13.2 10 Noroeste 16 Norte 0 -- -- 89
2017-09-25 04:00:00 14.7 8 Noroeste 22 Noroeste 0 -- -- 86
2017-09-25 03:00:00 15.8 14 Noroeste 22 Noroeste 0 -- -- 85
2017-09-25 02:00:00 15.6 12 Noroeste 23 Noroeste 0 -- -- 83
2017-09-25 01:00:00 15.6 4 Norte 5 Norte 0 -- -- 63
2017-09-25 00:00:00 16.7 3 Nordeste 9 Noroeste 0 -- -- 50
2017-09-24 23:00:00 18.2 5 Norte 15 Noroeste 0 -- -- 39
2017-09-24 22:00:00 19.1 5 Oeste 17 Oeste 0 -- -- 29
2017-09-24 21:00:00 20.8 6 Oeste 16 Sur 0 -- -- 22
2017-09-24 20:00:00 23.8 13 Sur 23 Sur 0 -- -- 18
2017-09-24 19:00:00 25.1 18 Sudoeste 34 Sudoeste 0 -- -- 18
2017-09-24 18:00:00 26.6 19 Sudoeste 31 Sur 0 -- -- 18
2017-09-24 17:00:00 26.5 21 Sudoeste 39 Sur 0 -- -- 18
2017-09-24 16:00:00 26.3 19 Sur 37 Sudoeste 0 -- -- 24
2017-09-24 15:00:00 26.1 25 Sur 44 Sur 0 -- -- 25
2017-09-24 14:00:00 25.4 25 Sudoeste 42 Sur 0 -- -- 28
2017-09-24 13:00:00 24.6 22 Sur 42 Sudoeste 0 -- -- 36
2017-09-24 12:00:00 23.3 21 Sudoeste 35 Sur 0 -- -- 40
2017-09-24 11:00:00 20.6 13 Sur 18 Sur 0 -- -- 44
2017-09-24 10:00:00 12.8 6 Sur 13 Sur 0 -- -- 70
2017-09-24 09:00:00 8.9 10 Sur 15 Sur 0 -- -- 81
2017-09-24 08:00:00 8.4 10 Sur 15 Sur 0 -- -- 82
2017-09-24 07:00:00 9.1 10 Sur 16 Sur 0 -- -- 82
2017-09-24 06:00:00 8.7 12 Sur 16 Sudeste 0 -- -- 83
2017-09-24 05:00:00 9.6 7 Sur 15 Sur 0 -- -- 80
2017-09-24 04:00:00 10.3 12 Sur 15 Sur 0 -- -- 80
2017-09-24 03:00:00 11.7 7 Sur 11 Sudeste 0 -- -- 74
2017-09-24 02:00:00 12.7 4 Sur 9 Sur 0 -- -- 69
2017-09-24 01:00:00 13.6 7 Sur 10 Sudeste 0 -- -- 65
2017-09-24 00:00:00 15.9 7 Sur 11 Norte 0 -- -- 56
2017-09-23 23:00:00 17.8 6 Norte 12 Norte 0 -- -- 50
2017-09-23 22:00:00 19.4 5 Norte 10 Noroeste 0 -- -- 44
2017-09-23 21:00:00 20.3 8 Sur 10 Sur 0 -- -- 40
2017-09-23 20:00:00 23.3 9 Sur 21 Sudoeste 0 -- -- 35
2017-09-23 19:00:00 24.7 11 Sudoeste 19 Sudoeste 0 -- -- 35
2017-09-23 18:00:00 24.9 9 Sudoeste 27 Sur 0 -- -- 37
2017-09-23 17:00:00 25.4 16 Sur 31 Sudoeste 0 -- -- 36
2017-09-23 16:00:00 25.4 17 Sur 33 Sur 0 -- -- 37
2017-09-23 15:00:00 24.6 18 Sudoeste 33 Sur 0 -- -- 39
2017-09-23 14:00:00 24.3 19 Sur 33 Sur 0 -- -- 39
2017-09-23 13:00:00 23.8 17 Sur 30 Sur 0 -- -- 39
2017-09-23 12:00:00 22.7 17 Sur 28 Sur 0 -- -- 45
2017-09-23 11:00:00 20.2 21 Sur 30 Sur 0 -- -- 52
2017-09-23 10:00:00 16.6 17 Sur 27 Sur 0 -- -- 67
2017-09-23 09:00:00 12.6 12 Sur 19 Sur 0 -- -- 78
2017-09-23 08:00:00 11.8 11 Sur 19 Sur 0 -- -- 73
2017-09-23 07:00:00 11.3 11 Sur 18 Sudeste 0 -- -- 71
2017-09-23 06:00:00 10.7 9 Sur 16 Sur 0 -- -- 71
2017-09-23 05:00:00 9.1 8 Sur 18 Sudeste 0 -- -- 77
2017-09-23 04:00:00 10.2 12 Sur 15 Sur 0 -- -- 74
2017-09-23 03:00:00 10.9 10 Sur 15 Sur 0 -- -- 72
2017-09-23 02:00:00 11.5 10 Sur 18 Sur 0 -- -- 72
2017-09-23 01:00:00 13.1 9 Sur 11 Sur 0 -- -- 66
2017-09-23 00:00:00 14.8 9 Sur 15 Sur 0 -- -- 59